Main page
METAR-TAF:

METAR-TAF

Airports :

Innsbruck Airport

Innsbruck, Austria

latitude: 47-16N, longitude: 011-21E, elevation: 581 m

Current weather observation

The report was made 48 minutes ago, at 12:20 UTC
Wind 8 kt from the West
Temperature 8°C
Humidity 46%
Pressure 1011 hPa
Visibility 10 km or more
no clouds below 1500 m and no cumulonimbus

METAR: LOWI 211220Z 27008KT CAVOK 08/M03 Q1011 NOSIG

Time: 14:08 (13:08 UTC)

Forecast

The report was made 1 hour and 53 minutes ago, at 11:15 UTC
Forecast valid from 21 at 12 UTC to 22 at 12 UTC
Wind 5 kt from the West
Visibility 10 km or more
no clouds below 1500 m and no cumulonimbus
Becoming
from 22 at 00 UTC to 22 at 02 UTC
Visibility 10 km or more
Few clouds at a height of 5000 ft
Scattered clouds at a height of 10000 ft
Broken clouds at a height of 15000 ft

TAF: LOWI 211115Z 2112/2212 27005KT CAVOK TX07/2212Z TNM01/2206Z BECMG 2200/2202 9999 FEW050 SCT100 BKN150

Weather observations and forecasts of more than 4000 airports (METAR and TAF reports).

The available stations are represented by yellow and red dots on the map.

Hover mouse over dot to see the name of the station.

Then click to see weather observations and forecasts.

To change the map : click on the green buttons with a black cross to zoom in, on the green button with a dash to zoom out, or on the green arrows for adjacent maps.


METAR-TAF: